createdAt,value
2017-11-04T00:00:13.081Z,48.90
2017-11-04T00:02:40.609Z,48.97
2017-11-04T00:05:08.114Z,51.00
2017-11-04T00:07:35.639Z,48.43
2017-11-04T00:10:03.142Z,51.20
2017-11-04T00:12:31.433Z,54.97
2017-11-04T00:14:59.690Z,55.73
2017-11-04T00:17:27.225Z,49.47
2017-11-04T00:19:54.715Z,52.83
2017-11-04T00:22:22.257Z,48.17
2017-11-04T00:24:49.754Z,53.90
2017-11-04T00:27:17.291Z,54.00
2017-11-04T00:29:45.588Z,51.13
2017-11-04T00:32:13.085Z,52.67
2017-11-04T00:34:40.624Z,57.90
2017-11-04T00:37:08.890Z,55.20
2017-11-04T00:39:36.418Z,57.70
2017-11-04T00:42:03.916Z,57.93
2017-11-04T00:44:31.447Z,54.83
2017-11-04T00:46:58.946Z,50.73
2017-11-04T00:49:26.754Z,53.50
2017-11-04T00:51:54.245Z,58.20
2017-11-04T00:54:22.562Z,61.10
2017-11-04T00:56:50.063Z,49.83
2017-11-04T00:59:17.557Z,51.13
2017-11-04T01:01:45.082Z,52.03
2017-11-04T01:04:12.584Z,53.90
2017-11-04T01:06:40.109Z,52.93
2017-11-04T01:09:07.602Z,54.63
2017-11-04T01:11:35.130Z,68.13
2017-11-04T01:14:02.617Z,66.47
2017-11-04T01:16:30.918Z,60.53
2017-11-04T01:18:58.414Z,63.30
2017-11-04T01:21:25.951Z,60.00
2017-11-04T01:23:54.217Z,63.73
2017-11-04T01:26:21.742Z,63.17
2017-11-04T01:28:49.246Z,63.37
2017-11-04T01:31:16.787Z,59.43
2017-11-04T01:33:47.077Z,59.17
2017-11-04T01:36:14.677Z,49.03
2017-11-04T01:38:42.206Z,53.43
2017-11-04T01:41:09.698Z,60.23
2017-11-04T01:43:38.114Z,47.90
2017-11-04T01:46:05.609Z,54.33
2017-11-04T01:48:32.643Z,60.57
2017-11-04T01:51:00.138Z,52.60
2017-11-04T01:53:27.284Z,55.80
2017-11-04T01:55:54.780Z,50.37
2017-11-04T01:58:22.308Z,56.90
2017-11-04T02:00:50.572Z,49.13
2017-11-04T02:03:18.105Z,47.70
2017-11-04T02:05:45.612Z,48.00
2017-11-04T02:08:13.112Z,47.13
2017-11-04T02:10:41.422Z,46.77
2017-11-04T02:13:08.910Z,40.60
2017-11-04T02:15:37.213Z,46.30
2017-11-04T02:18:04.706Z,43.60
2017-11-04T02:20:32.235Z,42.47
2017-11-04T02:22:59.734Z,43.83
2017-11-04T02:25:27.335Z,45.33
2017-11-04T02:27:54.831Z,52.00
2017-11-04T02:30:22.320Z,46.90
2017-11-04T02:32:49.851Z,43.83
2017-11-04T02:35:17.345Z,43.27
2017-11-04T02:37:45.648Z,43.13
2017-11-04T02:40:13.132Z,45.87
2017-11-04T02:42:40.666Z,45.93
2017-11-04T02:45:08.170Z,41.80
2017-11-04T02:47:35.723Z,48.30
2017-11-04T02:50:03.986Z,47.93
2017-11-04T02:52:32.255Z,55.13
2017-11-04T02:54:59.790Z,46.20
2017-11-04T02:57:27.322Z,47.77
2017-11-04T02:59:54.835Z,52.73
2017-11-04T03:02:23.097Z,50.77
2017-11-04T03:04:50.634Z,60.57
2017-11-04T03:07:18.139Z,53.10
2017-11-04T03:09:45.707Z,59.67
2017-11-04T03:12:13.189Z,67.37
2017-11-04T03:14:40.826Z,56.77
2017-11-04T03:17:08.317Z,59.70
2017-11-04T03:19:35.813Z,55.00
2017-11-04T03:22:03.345Z,57.90
2017-11-04T03:24:30.843Z,67.03
2017-11-04T03:26:58.368Z,74.07
2017-11-04T03:29:25.861Z,78.50
2017-11-04T03:31:53.380Z,67.43
2017-11-04T03:34:21.642Z,77.57
2017-11-04T03:36:49.173Z,62.57
2017-11-04T03:39:16.669Z,62.10
2017-11-04T03:41:44.217Z,73.87
2017-11-04T03:44:11.719Z,57.77
2017-11-04T03:46:39.222Z,58.80
2017-11-04T03:49:06.746Z,56.97
2017-11-04T03:51:34.254Z,53.37
2017-11-04T03:54:01.799Z,53.53
2017-11-04T03:56:29.302Z,61.60
2017-11-04T03:58:56.824Z,58.87
2017-11-04T04:01:24.326Z,48.97
2017-11-04T04:03:51.853Z,61.43
2017-11-04T04:06:20.124Z,57.03
2017-11-04T04:08:48.022Z,68.37
2017-11-04T04:11:16.281Z,59.43
2017-11-04T04:13:43.774Z,55.63
2017-11-04T04:16:12.070Z,59.30
2017-11-04T04:18:40.342Z,59.83
2017-11-04T04:21:07.865Z,58.83
2017-11-04T04:23:35.349Z,62.33
2017-11-04T04:26:02.878Z,53.63
2017-11-04T04:28:31.137Z,54.50
2017-11-04T04:30:58.667Z,50.87
2017-11-04T04:33:26.166Z,55.23
2017-11-04T04:35:53.694Z,60.97
2017-11-04T04:38:21.193Z,64.73
2017-11-04T04:40:48.713Z,64.13
2017-11-04T04:43:16.211Z,60.90
2017-11-04T04:45:43.758Z,57.53
2017-11-04T04:48:11.265Z,56.43
2017-11-04T04:50:38.760Z,58.30
2017-11-04T04:53:06.290Z,56.17
2017-11-04T04:55:34.545Z,57.53
2017-11-04T04:58:02.075Z,64.70
2017-11-04T05:00:29.566Z,59.03
2017-11-04T05:02:57.096Z,54.90
2017-11-04T05:05:25.357Z,66.60
2017-11-04T05:07:52.881Z,63.83
2017-11-04T05:10:20.369Z,62.03
2017-11-04T05:12:48.062Z,61.00
2017-11-04T05:15:15.553Z,60.50
2017-11-04T05:17:43.042Z,58.77
2017-11-04T05:20:11.335Z,65.03
2017-11-04T05:22:39.778Z,56.77
2017-11-04T05:25:07.306Z,61.20
2017-11-04T05:27:35.573Z,57.50
2017-11-04T05:30:03.093Z,57.27
2017-11-04T05:32:30.589Z,55.80
2017-11-04T05:34:59.002Z,62.27
2017-11-04T05:37:26.508Z,56.57
2017-11-04T05:39:54.033Z,59.53
2017-11-04T05:42:21.529Z,67.63
2017-11-04T05:44:50.144Z,56.57
2017-11-04T05:47:18.409Z,61.60
2017-11-04T05:49:45.913Z,66.57
2017-11-04T05:52:15.397Z,54.40
2017-11-04T05:54:42.907Z,59.27
2017-11-04T05:57:10.429Z,57.50
2017-11-04T05:59:37.925Z,56.07
2017-11-04T06:02:05.466Z,66.50
2017-11-04T06:04:32.970Z,70.30
2017-11-04T06:07:01.234Z,61.27
2017-11-04T06:09:28.759Z,61.23
2017-11-04T06:11:56.257Z,65.97
2017-11-04T06:14:23.786Z,59.00
2017-11-04T06:16:52.056Z,61.80
2017-11-04T06:19:20.348Z,67.67
2017-11-04T06:21:47.834Z,69.33
2017-11-04T06:24:16.129Z,67.43
2017-11-04T06:26:43.627Z,68.80
2017-11-04T06:29:11.160Z,65.47
2017-11-04T06:31:39.417Z,69.60
2017-11-04T06:34:06.947Z,71.60
2017-11-04T06:36:34.438Z,75.07
2017-11-04T06:39:01.981Z,73.23
2017-11-04T06:41:29.557Z,82.10
2017-11-04T06:43:57.046Z,76.67
2017-11-04T06:46:24.574Z,70.17
2017-11-04T06:48:52.838Z,71.37
2017-11-04T06:51:20.361Z,83.90
2017-11-04T06:53:47.856Z,74.77
2017-11-04T06:56:15.412Z,71.80
2017-11-04T06:58:42.897Z,68.63
2017-11-04T07:01:10.390Z,71.23
2017-11-04T07:03:38.684Z,75.37
2017-11-04T07:06:06.181Z,80.43
2017-11-04T07:08:34.468Z,81.70
2017-11-04T07:11:02.748Z,70.77
2017-11-04T07:13:30.277Z,73.47
2017-11-04T07:15:57.773Z,71.50
2017-11-04T07:18:25.294Z,70.60
2017-11-04T07:20:52.786Z,67.20
2017-11-04T07:23:20.317Z,73.50
2017-11-04T07:25:48.577Z,64.20
2017-11-04T07:28:16.126Z,59.40
2017-11-04T07:30:43.641Z,78.27
2017-11-04T07:33:11.132Z,60.40
2017-11-04T07:35:39.421Z,59.90
2017-11-04T07:38:06.911Z,75.43
2017-11-04T07:40:34.438Z,59.97
2017-11-04T07:43:01.934Z,68.33
2017-11-04T07:45:30.226Z,60.13
2017-11-04T07:47:57.721Z,61.60
2017-11-04T07:50:25.261Z,56.23
2017-11-04T07:52:53.558Z,65.80
2017-11-04T07:55:21.053Z,60.73
2017-11-04T07:57:48.578Z,62.17
2017-11-04T08:00:16.064Z,62.07
2017-11-04T08:02:43.617Z,64.63
2017-11-04T08:05:11.119Z,62.50
2017-11-04T08:07:38.918Z,64.03
2017-11-04T08:10:06.409Z,59.80
2017-11-04T08:12:33.934Z,56.97
2017-11-04T08:15:01.429Z,54.30
2017-11-04T08:17:28.949Z,50.67
2017-11-04T08:19:56.433Z,49.60
2017-11-04T08:22:23.983Z,53.03
2017-11-04T08:24:51.481Z,47.33
2017-11-04T08:27:19.773Z,47.30
2017-11-04T08:29:48.038Z,41.73
2017-11-04T08:32:15.585Z,44.50
2017-11-04T08:34:43.081Z,43.37
2017-11-04T08:37:10.580Z,39.17
2017-11-04T08:39:38.104Z,34.77
2017-11-04T08:42:05.610Z,37.10
2017-11-04T08:44:33.145Z,34.57
2017-11-04T08:47:00.634Z,41.00
2017-11-04T08:49:28.169Z,41.27
2017-11-04T08:51:55.662Z,39.90
2017-11-04T08:54:23.189Z,33.83
2017-11-04T08:56:50.686Z,35.30
2017-11-04T08:59:18.218Z,38.23
2017-11-04T09:01:46.485Z,37.10
2017-11-04T09:04:14.814Z,34.83
2017-11-04T09:06:42.342Z,39.53
2017-11-04T09:09:09.838Z,37.87
2017-11-04T09:11:38.138Z,41.50
2017-11-04T09:14:06.408Z,36.77
2017-11-04T09:16:33.934Z,41.27
2017-11-04T09:19:01.433Z,39.30
2017-11-04T09:21:28.961Z,34.83
2017-11-04T09:23:56.467Z,35.63
2017-11-04T09:26:23.994Z,37.53
2017-11-04T09:28:51.493Z,40.40
2017-11-04T09:31:19.141Z,35.43
2017-11-04T09:33:46.645Z,41.30
2017-11-04T09:36:14.142Z,38.23
2017-11-04T09:38:41.681Z,34.93
2017-11-04T09:41:09.173Z,39.33
2017-11-04T09:43:36.715Z,39.03
2017-11-04T09:46:04.212Z,40.70
2017-11-04T09:48:31.742Z,35.40
2017-11-04T09:50:59.246Z,41.30
2017-11-04T09:53:26.765Z,35.70
2017-11-04T09:55:55.026Z,39.83
2017-11-04T09:58:22.569Z,41.30
2017-11-04T10:00:50.065Z,37.53
2017-11-04T10:03:17.567Z,35.17
2017-11-04T10:05:45.105Z,33.80
2017-11-04T10:08:12.605Z,45.63
2017-11-04T10:10:40.893Z,40.03
2017-11-04T10:13:09.158Z,37.47
2017-11-04T10:15:36.693Z,39.10
2017-11-04T10:18:04.189Z,42.40
2017-11-04T10:20:31.720Z,40.80
2017-11-04T10:22:59.218Z,41.57
2017-11-04T10:25:26.741Z,41.90
2017-11-04T10:27:55.006Z,45.90
2017-11-04T10:30:22.565Z,40.43
2017-11-04T10:32:50.058Z,42.67
2017-11-04T10:35:17.585Z,46.07
2017-11-04T10:37:45.114Z,43.97
2017-11-04T10:40:13.389Z,39.73
2017-11-04T10:42:42.853Z,42.70
2017-11-04T10:45:10.341Z,42.17
2017-11-04T10:47:37.877Z,39.40
2017-11-04T10:50:06.129Z,44.07
2017-11-04T10:52:33.661Z,45.23
2017-11-04T10:55:01.158Z,37.17
2017-11-04T10:57:28.693Z,40.03
2017-11-04T10:59:56.181Z,51.57
2017-11-04T11:02:23.710Z,45.97
2017-11-04T11:04:51.969Z,39.70
2017-11-04T11:07:19.508Z,40.83
2017-11-04T11:09:47.000Z,44.93
2017-11-04T11:12:14.568Z,46.40
2017-11-04T11:14:42.100Z,37.23
2017-11-04T11:17:10.361Z,37.10
2017-11-04T11:19:37.890Z,43.80
2017-11-04T11:22:05.382Z,43.97
2017-11-04T11:24:32.930Z,43.10
2017-11-04T11:27:00.430Z,41.70
2017-11-04T11:29:27.958Z,42.97
2017-11-04T11:31:55.471Z,40.70
2017-11-04T11:34:23.012Z,49.53
2017-11-04T11:36:50.510Z,41.50
2017-11-04T11:39:18.043Z,40.40
2017-11-04T11:41:45.576Z,41.17
2017-11-04T11:44:13.077Z,42.37
2017-11-04T11:46:40.609Z,38.20
2017-11-04T11:49:08.105Z,39.73
2017-11-04T11:51:36.398Z,39.33
2017-11-04T11:54:04.663Z,42.97
2017-11-04T11:56:32.191Z,43.37
2017-11-04T11:58:59.769Z,39.30
2017-11-04T12:01:27.293Z,43.20
2017-11-04T12:03:54.793Z,41.70
2017-11-04T12:06:22.321Z,46.90
2017-11-04T12:08:49.827Z,38.87
2017-11-04T12:11:18.117Z,40.33
2017-11-04T12:13:46.417Z,39.83
2017-11-04T12:16:13.978Z,40.10
2017-11-04T12:18:42.245Z,37.57
2017-11-04T12:21:09.745Z,38.30
2017-11-04T12:23:37.270Z,33.50
2017-11-04T12:26:04.770Z,32.17
2017-11-04T12:28:32.334Z,35.97
2017-11-04T12:30:59.832Z,33.80
2017-11-04T12:33:27.353Z,29.37
2017-11-04T12:35:54.847Z,31.70
2017-11-04T12:38:22.378Z,30.60
2017-11-04T12:40:49.885Z,30.83
2017-11-04T12:43:17.625Z,35.57
2017-11-04T12:45:45.127Z,32.33
2017-11-04T12:48:12.677Z,24.47
2017-11-04T12:50:40.174Z,29.67
2017-11-04T12:53:07.702Z,20.33
2017-11-04T12:55:35.206Z,23.17
2017-11-04T12:58:02.769Z,18.97
2017-11-04T13:00:30.270Z,19.47
2017-11-04T13:02:57.769Z,21.50
2017-11-04T13:05:25.293Z,15.50
2017-11-04T13:07:52.789Z,16.93
2017-11-04T13:10:21.102Z,22.23
2017-11-04T13:12:48.625Z,25.60
2017-11-04T13:15:16.159Z,19.87
2017-11-04T13:17:43.657Z,18.13
2017-11-04T13:20:11.184Z,16.87
2017-11-04T13:22:38.681Z,16.73
2017-11-04T13:25:06.206Z,24.20
2017-11-04T13:27:34.470Z,23.40
2017-11-04T13:30:01.997Z,15.57
2017-11-04T13:32:29.498Z,17.80
2017-11-04T13:34:57.041Z,17.67
2017-11-04T13:37:24.549Z,19.43
2017-11-04T13:39:52.077Z,20.70
2017-11-04T13:42:19.622Z,14.97
2017-11-04T13:44:47.113Z,21.57
2017-11-04T13:47:14.646Z,13.37
2017-11-04T13:49:42.142Z,14.93
2017-11-04T13:52:10.437Z,17.70
2017-11-04T13:54:38.694Z,12.90
2017-11-04T13:57:06.221Z,15.53
2017-11-04T13:59:33.709Z,12.30
2017-11-04T14:02:01.230Z,14.77
2017-11-04T14:04:28.726Z,10.13
2017-11-04T14:06:56.255Z,11.20
2017-11-04T14:09:23.782Z,12.47
2017-11-04T14:11:51.289Z,13.00
2017-11-04T14:14:18.823Z,13.53
2017-11-04T14:16:46.308Z,12.23
2017-11-04T14:19:13.834Z,13.70
2017-11-04T14:21:41.384Z,12.10
2017-11-04T14:24:08.905Z,14.40
2017-11-04T14:26:36.401Z,11.20
2017-11-04T14:29:04.043Z,10.60
2017-11-04T14:31:31.541Z,11.03
2017-11-04T14:33:59.035Z,13.87
2017-11-04T14:36:26.582Z,10.30
2017-11-04T14:38:54.080Z,10.97
2017-11-04T14:41:21.609Z,11.73
2017-11-04T14:43:49.102Z,14.67
2017-11-04T14:46:16.630Z,11.70
2017-11-04T14:48:44.130Z,12.87
2017-11-04T14:51:11.653Z,10.03
2017-11-04T14:53:39.918Z,8.37
2017-11-04T14:56:07.454Z,10.83
2017-11-04T14:58:34.949Z,11.67
2017-11-04T15:01:02.471Z,7.50
2017-11-04T15:03:30.740Z,8.13
2017-11-04T15:05:58.285Z,8.63
2017-11-04T15:08:26.538Z,14.60
2017-11-04T15:10:54.047Z,9.77
2017-11-04T15:13:21.574Z,9.30
2017-11-04T15:15:49.838Z,10.57
2017-11-04T15:18:17.359Z,10.00
2017-11-04T15:23:18.867Z,13.97
2017-11-04T15:25:46.366Z,12.23
2017-11-04T15:28:13.889Z,11.63
2017-11-04T15:30:41.386Z,10.60
2017-11-04T15:33:08.917Z,9.27
2017-11-04T15:35:37.174Z,9.70
2017-11-04T15:38:04.717Z,11.57
2017-11-04T15:40:32.206Z,13.27
2017-11-04T15:42:59.697Z,10.60
2017-11-04T15:45:27.229Z,13.63
2017-11-04T15:47:54.721Z,14.07
2017-11-04T15:50:22.241Z,11.87
2017-11-04T15:52:50.505Z,11.13
2017-11-04T15:55:18.797Z,10.87
2017-11-04T15:57:47.079Z,9.90
2017-11-04T16:00:15.386Z,10.87
2017-11-04T16:02:42.906Z,11.77
2017-11-04T16:05:10.430Z,10.80
2017-11-04T16:07:38.701Z,12.43
2017-11-04T16:10:06.238Z,13.87
2017-11-04T16:12:33.734Z,13.53
2017-11-04T16:15:01.230Z,13.67
2017-11-04T16:17:29.523Z,13.27
2017-11-04T16:19:57.788Z,11.80
2017-11-04T16:22:25.318Z,22.63
2017-11-04T16:24:52.812Z,13.00
2017-11-04T16:27:20.345Z,13.93
2017-11-04T16:29:47.829Z,9.10
2017-11-04T16:32:15.365Z,10.93
2017-11-04T16:34:43.701Z,14.83
2017-11-04T16:37:11.240Z,15.47
2017-11-04T16:39:38.741Z,17.50
2017-11-04T16:42:06.235Z,14.57
2017-11-04T16:44:33.757Z,15.43
2017-11-04T16:47:01.266Z,12.97
2017-11-04T16:49:28.802Z,12.57
2017-11-04T16:51:56.289Z,13.13
2017-11-04T16:54:23.818Z,10.17
2017-11-04T16:56:51.314Z,15.00
2017-11-04T16:59:18.874Z,13.43
2017-11-04T17:01:47.131Z,12.30
2017-11-04T17:04:14.672Z,14.30
2017-11-04T17:06:42.210Z,16.53
2017-11-04T17:09:09.710Z,18.97
2017-11-04T17:11:37.238Z,17.73
2017-11-04T17:14:05.498Z,15.20
2017-11-04T17:16:33.026Z,17.77
2017-11-04T17:19:00.529Z,12.70
2017-11-04T17:21:28.067Z,18.40
2017-11-04T17:23:55.571Z,14.13
2017-11-04T17:26:23.109Z,14.90
2017-11-04T17:28:50.613Z,14.30
2017-11-04T17:31:18.149Z,13.57
2017-11-04T17:33:45.674Z,13.57
2017-11-04T17:36:13.205Z,21.67
2017-11-04T17:38:40.711Z,16.10
2017-11-04T17:41:08.389Z,14.80
2017-11-04T17:43:35.886Z,19.63
2017-11-04T17:46:04.162Z,16.43
2017-11-04T17:48:31.689Z,17.70
2017-11-04T17:50:59.190Z,16.90
2017-11-04T17:53:26.727Z,15.10
2017-11-04T17:55:54.226Z,15.13
2017-11-04T17:58:21.759Z,16.23
2017-11-04T18:00:49.263Z,15.50
2017-11-04T18:03:16.794Z,15.83
2017-11-04T18:05:45.059Z,16.30
2017-11-04T18:08:12.749Z,14.57
2017-11-04T18:10:41.020Z,16.40
2017-11-04T18:13:08.526Z,18.73
2017-11-04T18:15:36.055Z,13.60
2017-11-04T18:18:03.555Z,15.00
2017-11-04T18:20:31.096Z,17.10
2017-11-04T18:22:58.593Z,24.43
2017-11-04T18:25:26.886Z,14.30
2017-11-04T18:27:55.150Z,15.53
2017-11-04T18:30:22.698Z,15.87
2017-11-04T18:32:50.243Z,13.00
2017-11-04T18:35:17.790Z,13.90
2017-11-04T18:37:45.301Z,16.17
2017-11-04T18:40:12.796Z,17.83
2017-11-04T18:42:40.322Z,15.93
2017-11-04T18:45:07.813Z,14.43
2017-11-04T18:47:35.349Z,24.10
2017-11-04T18:50:03.609Z,16.13
2017-11-04T18:52:31.136Z,23.13
2017-11-04T18:54:58.638Z,17.40
2017-11-04T18:57:26.169Z,18.83
2017-11-04T18:59:53.676Z,11.37
2017-11-04T19:02:21.207Z,17.07
2017-11-04T19:04:48.710Z,19.97
2017-11-04T19:07:16.545Z,15.23
2017-11-04T19:09:44.046Z,13.87
2017-11-04T19:12:11.547Z,11.10
2017-11-04T19:14:39.101Z,18.90
2017-11-04T19:17:06.605Z,22.13
2017-11-04T19:19:34.129Z,13.93
2017-11-04T19:22:01.622Z,14.20
2017-11-04T19:24:29.154Z,16.37
2017-11-04T19:26:57.418Z,13.13
2017-11-04T19:29:24.950Z,10.50
2017-11-04T19:31:52.444Z,15.60
2017-11-04T19:34:20.006Z,15.53
2017-11-04T19:36:47.515Z,13.47
2017-11-04T19:39:15.016Z,11.20
2017-11-04T19:41:42.622Z,11.03
2017-11-04T19:44:10.133Z,14.40
2017-11-04T19:46:38.439Z,13.90
2017-11-04T19:49:05.937Z,17.00
2017-11-04T19:51:33.459Z,15.87
2017-11-04T19:54:01.749Z,16.00
2017-11-04T19:56:30.072Z,18.83
2017-11-04T19:58:57.589Z,16.60
2017-11-04T20:01:25.117Z,14.47
2017-11-04T20:03:52.618Z,18.00
2017-11-04T20:06:20.162Z,19.00
2017-11-04T20:08:47.820Z,13.83
2017-11-04T20:11:16.094Z,9.50
2017-11-04T20:13:44.540Z,10.53
2017-11-04T20:16:12.029Z,13.53
2017-11-04T20:18:39.562Z,12.50
2017-11-04T20:21:07.115Z,9.03
2017-11-04T20:23:35.445Z,11.73
2017-11-04T20:26:02.945Z,11.63
2017-11-04T20:28:30.469Z,16.40
2017-11-04T20:30:57.985Z,20.17
2017-11-04T20:33:25.537Z,17.07
2017-11-04T20:35:53.038Z,11.60
2017-11-04T20:38:20.530Z,13.93
2017-11-04T20:40:48.057Z,11.50
2017-11-04T20:43:15.550Z,8.73
2017-11-04T20:45:43.086Z,11.53
2017-11-04T20:48:10.580Z,11.07
2017-11-04T20:50:38.118Z,11.17
2017-11-04T20:53:05.610Z,12.97
2017-11-04T20:55:33.157Z,14.93
2017-11-04T20:58:00.661Z,16.20
2017-11-04T21:00:28.154Z,11.70
2017-11-04T21:02:55.677Z,11.30
2017-11-04T21:05:23.172Z,13.47
2017-11-04T21:07:50.700Z,11.20
2017-11-04T21:10:18.194Z,11.77
2017-11-04T21:12:45.723Z,11.33
2017-11-04T21:15:14.005Z,10.90
2017-11-04T21:17:41.528Z,17.60
2017-11-04T21:20:09.022Z,14.30
2017-11-04T21:22:36.547Z,12.90
2017-11-04T21:25:04.041Z,10.60
2017-11-04T21:27:31.574Z,10.60
2017-11-04T21:29:59.829Z,13.80
2017-11-04T21:32:27.362Z,11.00
2017-11-04T21:34:55.631Z,8.93
2017-11-04T21:37:23.939Z,10.20
2017-11-04T21:39:51.445Z,9.20
2017-11-04T21:42:18.940Z,12.73
2017-11-04T21:44:46.471Z,8.77
2017-11-04T21:47:13.990Z,12.37
2017-11-04T21:49:42.286Z,12.40
2017-11-04T21:52:10.546Z,9.13
2017-11-04T21:54:38.066Z,8.10
2017-11-04T21:57:05.554Z,10.93
2017-11-04T21:59:33.841Z,7.97
2017-11-04T22:02:01.334Z,11.13
2017-11-04T22:04:28.870Z,8.43
2017-11-04T22:06:56.366Z,10.20
2017-11-04T22:09:23.858Z,8.00
2017-11-04T22:11:51.384Z,8.63
2017-11-04T22:14:18.877Z,10.40
2017-11-04T22:16:46.406Z,13.10
2017-11-04T22:19:14.663Z,9.57
2017-11-04T22:21:42.187Z,10.80
2017-11-04T22:24:09.692Z,14.27
2017-11-04T22:26:37.233Z,11.50
2017-11-04T22:29:04.718Z,9.43
2017-11-04T22:31:32.210Z,10.30
2017-11-04T22:33:59.730Z,8.10
2017-11-04T22:36:27.229Z,12.10
2017-11-04T22:38:54.753Z,12.40
2017-11-04T22:41:22.241Z,8.73
2017-11-04T22:43:49.766Z,9.33
2017-11-04T22:46:17.262Z,10.83
2017-11-04T22:48:44.799Z,9.53
2017-11-04T22:51:12.294Z,10.20
2017-11-04T22:53:39.834Z,9.13
2017-11-04T22:56:07.321Z,8.00
2017-11-04T22:58:34.813Z,10.37
2017-11-04T23:01:02.335Z,6.80
2017-11-04T23:03:29.825Z,7.43
2017-11-04T23:05:57.354Z,10.83
2017-11-04T23:08:25.610Z,9.60
2017-11-04T23:10:53.154Z,12.97
2017-11-04T23:13:20.646Z,11.33
2017-11-04T23:15:48.374Z,10.60
2017-11-04T23:18:15.866Z,10.17
2017-11-04T23:20:43.394Z,12.53
2017-11-04T23:23:10.887Z,13.83
2017-11-04T23:25:38.405Z,14.07
2017-11-04T23:28:05.898Z,12.10
2017-11-04T23:30:34.230Z,14.33
2017-11-04T23:33:01.717Z,12.27
2017-11-04T23:35:29.204Z,14.60
2017-11-04T23:37:56.730Z,12.63
2017-11-04T23:40:24.235Z,21.80
2017-11-04T23:42:51.766Z,12.37
2017-11-04T23:45:20.025Z,18.07
2017-11-04T23:47:47.550Z,18.67
2017-11-04T23:50:15.045Z,15.40
2017-11-04T23:52:42.578Z,15.83
2017-11-04T23:55:10.078Z,21.73
2017-11-04T23:57:37.614Z,18.17
